Sand Point, Michigan
Current Conditions -  °F | °C
As of 10:58 AM on Friday 24 Oct 2014 (Local Time) from KBAX Reporting Station
Clear Clear  
Wind Chill:   Ceiling: Unl
Heat Index:   Visibility: 10mi
Dew Point:   Wind: 3mph
Humidity: 100%   Direction: 240°WSW
Pressure: 30.05"   Gusts: NA
Location:  43.8338°N, 83.2671°W
Report Text: KBAX 241458Z AUTO 24003KT 10SM CLR 09/09 A3005 RMK AO2 T00900090
Loading
Personal Weather Stations






























Interactive Weather Map
Tropical Storm Tracking
New forecast layout! Learn more

10-Day Weather Forecast

Advertisements
Track Severe Weather on mobile